createdAt,value
2022-12-23T00:00:18.032Z,99544.28
2022-12-23T00:01:06.331Z,99557.88
2022-12-23T00:01:53.361Z,99554.31
2022-12-23T00:02:40.504Z,99561.31
2022-12-23T00:03:28.265Z,99550.28
2022-12-23T00:04:15.524Z,99551.56
2022-12-23T00:05:03.106Z,99545.81
2022-12-23T00:05:50.781Z,99539.34
2022-12-23T00:06:37.713Z,99544.72
2022-12-23T00:07:24.630Z,99538.16
2022-12-23T00:08:11.572Z,99543.19
2022-12-23T00:08:59.216Z,99533.09
2022-12-23T00:09:46.367Z,99531.59
2022-12-23T00:10:34.176Z,99523.56
2022-12-23T00:11:21.191Z,99520.47
2022-12-23T00:12:26.629Z,99515.50
2022-12-23T00:13:32.509Z,99512.31
2022-12-23T00:14:38.181Z,99523.91
2022-12-23T00:15:25.114Z,99519.13
2022-12-23T00:16:14.041Z,99513.06
2022-12-23T00:17:01.086Z,99523.44
2022-12-23T00:17:48.140Z,99519.06
2022-12-23T00:18:35.684Z,99517.12
2022-12-23T00:19:22.669Z,99513.13
2022-12-23T00:20:12.302Z,99517.03
2022-12-23T00:21:08.638Z,99509.22
2022-12-23T00:21:56.216Z,99508.19
2022-12-23T00:23:01.563Z,99508.56
2022-12-23T00:23:50.026Z,99514.13
2022-12-23T00:24:36.970Z,99525.47
2022-12-23T00:25:44.430Z,99508.44
2022-12-23T00:26:31.321Z,99511.00
2022-12-23T00:27:18.270Z,99500.00
2022-12-23T00:28:05.298Z,99483.13
2022-12-23T00:28:52.765Z,99491.63
2022-12-23T00:29:39.661Z,99488.09
2022-12-23T00:30:26.658Z,99496.16
2022-12-23T00:31:14.767Z,99498.16
2022-12-23T00:32:01.806Z,99509.28
2022-12-23T00:32:48.764Z,99515.84
2022-12-23T00:33:38.344Z,99510.47
2022-12-23T00:34:25.275Z,99505.66
2022-12-23T00:35:12.222Z,99492.13
2022-12-23T00:35:59.226Z,99489.06
2022-12-23T00:36:46.182Z,99492.56
2022-12-23T00:37:33.139Z,99485.56
2022-12-23T00:38:41.134Z,99485.72
2022-12-23T00:40:06.767Z,99474.47
2022-12-23T00:41:12.620Z,99471.09
2022-12-23T00:42:18.202Z,99472.91
2022-12-23T00:43:05.187Z,99475.56
2022-12-23T00:43:52.461Z,99466.72
2022-12-23T00:44:39.361Z,99468.78
2022-12-23T00:45:26.485Z,99482.63
2022-12-23T00:46:13.473Z,99475.37
2022-12-23T00:47:00.469Z,99472.72
2022-12-23T00:48:07.333Z,99475.25
2022-12-23T00:49:13.420Z,99476.41
2022-12-23T00:50:00.444Z,99474.56
2022-12-23T00:50:47.440Z,99474.31
2022-12-23T00:51:34.459Z,99474.31
2022-12-23T00:52:21.386Z,99477.47
2022-12-23T00:53:08.410Z,99472.25
2022-12-23T00:53:55.371Z,99471.97
2022-12-23T00:54:42.417Z,99465.97
2022-12-23T00:55:29.366Z,99464.97
2022-12-23T00:56:16.291Z,99468.28
2022-12-23T00:57:03.751Z,99461.84
2022-12-23T00:57:50.757Z,99474.84
2022-12-23T00:58:37.689Z,99464.78
2022-12-23T00:59:24.629Z,99472.69
2022-12-23T01:00:12.232Z,99471.84
2022-12-23T01:01:17.981Z,99469.13
2022-12-23T01:02:23.573Z,99475.09
2022-12-23T01:03:34.486Z,99480.91
2022-12-23T01:04:40.107Z,99472.81
2022-12-23T01:05:39.203Z,99469.06
2022-12-23T01:06:26.198Z,99469.25
2022-12-23T01:07:13.145Z,99461.09
2022-12-23T01:08:00.088Z,99477.41
2022-12-23T01:08:47.060Z,99470.62
2022-12-23T01:09:34.417Z,99462.59
2022-12-23T01:10:24.282Z,99464.03
2022-12-23T01:11:12.729Z,99468.88
2022-12-23T01:11:59.660Z,99453.00
2022-12-23T01:12:46.621Z,99453.06
2022-12-23T01:13:34.125Z,99460.25
2022-12-23T01:14:21.731Z,99456.69
2022-12-23T01:15:09.039Z,99458.56
2022-12-23T01:16:04.240Z,99454.97
2022-12-23T01:16:51.384Z,99459.72
2022-12-23T01:17:38.282Z,99450.38
2022-12-23T01:18:25.224Z,99450.47
2022-12-23T01:19:12.494Z,99453.75
2022-12-23T01:19:59.445Z,99446.13
2022-12-23T01:20:46.379Z,99457.12
2022-12-23T01:21:33.981Z,99460.25
2022-12-23T01:22:20.985Z,99461.72
2022-12-23T01:23:07.960Z,99462.78
2022-12-23T01:23:54.871Z,99454.06
2022-12-23T01:24:41.850Z,99462.94
2022-12-23T01:25:28.857Z,99453.94
2022-12-23T01:26:16.045Z,99459.50
2022-12-23T01:27:02.994Z,99464.84
2022-12-23T01:27:49.911Z,99462.25
2022-12-23T01:28:37.072Z,99452.72
2022-12-23T01:29:24.240Z,99453.69
2022-12-23T01:30:11.429Z,99449.47
2022-12-23T01:31:00.612Z,99450.31
2022-12-23T01:31:47.589Z,99440.53
2022-12-23T01:32:34.573Z,99450.00
2022-12-23T01:33:21.817Z,99449.63
2022-12-23T01:34:08.805Z,99453.00
2022-12-23T01:34:55.745Z,99446.75
2022-12-23T01:35:42.739Z,99443.06
2022-12-23T01:36:29.705Z,99447.69
2022-12-23T01:37:16.638Z,99445.59
2022-12-23T01:38:03.576Z,99437.50
2022-12-23T01:38:50.948Z,99436.06
2022-12-23T01:39:37.891Z,99445.22
2022-12-23T01:40:24.845Z,99435.50
2022-12-23T01:41:43.117Z,99433.62
2022-12-23T01:42:45.480Z,99431.09
2022-12-23T01:44:24.830Z,99428.91
2022-12-23T01:45:31.208Z,99427.88
2022-12-23T01:46:18.494Z,99422.06
2022-12-23T01:47:10.258Z,99420.06
2022-12-23T01:48:25.502Z,99413.09
2022-12-23T01:49:12.489Z,99418.97
2022-12-23T01:50:05.301Z,99412.94
2022-12-23T01:50:59.343Z,99417.13
2022-12-23T01:51:46.240Z,99421.28
2022-12-23T01:52:36.467Z,99416.97
2022-12-23T01:53:27.370Z,99421.84
2022-12-23T01:54:14.309Z,99417.66
2022-12-23T01:55:01.334Z,99429.19
2022-12-23T01:56:01.671Z,99418.28
2022-12-23T01:56:49.070Z,99417.53
2022-12-23T01:57:37.291Z,99416.22
2022-12-23T01:58:31.645Z,99422.03
2022-12-23T01:59:36.949Z,99420.19
2022-12-23T02:00:42.368Z,99416.81
2022-12-23T02:01:48.793Z,99420.03
2022-12-23T02:02:56.106Z,99412.16
2022-12-23T02:03:44.452Z,99415.03
2022-12-23T02:04:31.600Z,99408.81
2022-12-23T02:05:18.570Z,99408.31
2022-12-23T02:06:24.395Z,99402.28
2022-12-23T02:07:29.939Z,99412.41
2022-12-23T02:08:35.877Z,99404.81
2022-12-23T02:09:34.955Z,99410.97
2022-12-23T02:10:25.910Z,99411.44
2022-12-23T02:11:18.663Z,99409.97
2022-12-23T02:12:34.721Z,99411.88
2022-12-23T02:14:07.129Z,99410.19
2022-12-23T02:15:31.132Z,99410.28
2022-12-23T02:16:18.145Z,99403.47
2022-12-23T02:17:12.975Z,99403.31
2022-12-23T02:18:31.871Z,99403.56
2022-12-23T02:19:54.225Z,99402.03
2022-12-23T02:21:15.878Z,99403.88
2022-12-23T02:22:21.089Z,99403.03
2022-12-23T02:23:38.947Z,99407.09
2022-12-23T02:24:55.425Z,99396.31
2022-12-23T02:25:45.139Z,99404.22
2022-12-23T02:26:56.334Z,99401.88
2022-12-23T02:27:48.900Z,99402.84
2022-12-23T02:29:00.724Z,99399.97
2022-12-23T02:30:02.547Z,99397.00
2022-12-23T02:30:57.663Z,99395.03
2022-12-23T02:32:24.279Z,99397.91
2022-12-23T02:33:39.236Z,99396.53
2022-12-23T02:34:38.356Z,99396.22
2022-12-23T02:35:33.742Z,99403.25
2022-12-23T02:36:32.623Z,99401.78
2022-12-23T02:37:24.980Z,99405.47
2022-12-23T02:38:28.328Z,99403.47
2022-12-23T02:39:24.319Z,99404.22
2022-12-23T02:40:33.617Z,99410.59
2022-12-23T02:41:42.685Z,99406.91
2022-12-23T02:42:41.646Z,99407.44
2022-12-23T02:43:51.882Z,99411.41
2022-12-23T02:45:08.658Z,99413.63
2022-12-23T02:46:01.187Z,99416.16
2022-12-23T02:46:52.376Z,99409.50
2022-12-23T02:47:47.038Z,99404.84
2022-12-23T02:48:52.453Z,99412.41
2022-12-23T02:49:42.815Z,99407.88
2022-12-23T02:50:32.793Z,99406.91
2022-12-23T02:51:21.251Z,99412.75
2022-12-23T02:52:14.144Z,99417.50
2022-12-23T02:53:07.408Z,99410.16
2022-12-23T02:53:56.883Z,99410.31
2022-12-23T02:54:57.658Z,99399.94
2022-12-23T02:55:47.249Z,99410.53
2022-12-23T02:56:35.715Z,99397.31
2022-12-23T02:57:29.012Z,99402.97
2022-12-23T02:58:18.712Z,99401.31
2022-12-23T02:59:11.915Z,99400.28
2022-12-23T03:00:00.635Z,99402.53
2022-12-23T03:00:48.690Z,99402.53
2022-12-23T03:01:36.287Z,99399.69
2022-12-23T03:02:23.426Z,99393.84
2022-12-23T03:03:10.942Z,99396.91
2022-12-23T03:03:58.067Z,99391.41
2022-12-23T03:04:45.081Z,99386.50
2022-12-23T03:05:36.328Z,99387.47
2022-12-23T03:06:26.820Z,99386.91
2022-12-23T03:07:35.593Z,99384.31
2022-12-23T03:08:35.165Z,99379.78
2022-12-23T03:09:59.510Z,99380.41
2022-12-23T03:11:06.430Z,99385.59
2022-12-23T03:12:22.462Z,99377.88
2022-12-23T03:13:46.959Z,99377.09
2022-12-23T03:14:54.855Z,99370.31
2022-12-23T03:15:47.444Z,99366.97
2022-12-23T03:16:34.386Z,99354.09
2022-12-23T03:17:30.387Z,99355.25
2022-12-23T03:18:34.439Z,99348.06
2022-12-23T03:19:26.698Z,99354.38
2022-12-23T03:20:21.688Z,99355.38
2022-12-23T03:21:29.044Z,99343.47
2022-12-23T03:23:00.556Z,99340.25
2022-12-23T03:23:55.189Z,99346.22
2022-12-23T03:25:06.042Z,99340.72
2022-12-23T03:26:12.467Z,99347.09
2022-12-23T03:27:09.486Z,99339.03
2022-12-23T03:28:05.738Z,99340.78
2022-12-23T03:28:58.742Z,99345.59
2022-12-23T03:29:57.259Z,99345.75
2022-12-23T03:30:47.826Z,99338.78
2022-12-23T03:31:35.317Z,99344.44
2022-12-23T03:32:22.902Z,99351.25
2022-12-23T03:33:16.979Z,99346.75
2022-12-23T03:34:19.098Z,99345.13
2022-12-23T03:35:08.847Z,99339.88
2022-12-23T03:36:02.796Z,99338.53
2022-12-23T03:36:52.943Z,99330.94
2022-12-23T03:37:44.207Z,99336.69
2022-12-23T03:38:33.360Z,99337.97
2022-12-23T03:39:23.007Z,99335.31
2022-12-23T03:40:11.561Z,99332.09
2022-12-23T03:41:01.591Z,99329.22
2022-12-23T03:41:53.156Z,99334.50
2022-12-23T03:42:42.094Z,99342.44
2022-12-23T03:43:33.117Z,99338.78
2022-12-23T03:44:25.037Z,99348.62
2022-12-23T03:45:41.282Z,99348.47
2022-12-23T03:46:36.146Z,99344.34
2022-12-23T03:47:30.348Z,99353.19
2022-12-23T03:48:24.341Z,99347.44
2022-12-23T03:49:21.927Z,99347.22
2022-12-23T03:50:12.132Z,99349.72
2022-12-23T03:51:02.793Z,99350.25
2022-12-23T03:51:51.766Z,99350.88
2022-12-23T03:52:45.519Z,99355.84
2022-12-23T03:53:39.199Z,99363.25
2022-12-23T03:54:37.287Z,99355.44
2022-12-23T03:55:30.358Z,99352.38
2022-12-23T03:56:22.479Z,99353.00
2022-12-23T03:57:09.956Z,99355.84
2022-12-23T03:58:10.604Z,99358.34
2022-12-23T03:59:03.937Z,99364.38
2022-12-23T03:59:51.728Z,99361.66
2022-12-23T04:00:46.249Z,99362.03
2022-12-23T04:01:51.696Z,99358.69
2022-12-23T04:02:52.590Z,99365.31
2022-12-23T04:03:57.758Z,99354.47
2022-12-23T04:05:02.991Z,99358.53
2022-12-23T04:05:56.676Z,99364.72
2022-12-23T04:06:55.748Z,99362.97
2022-12-23T04:07:51.980Z,99365.25
2022-12-23T04:08:39.486Z,99358.03
2022-12-23T04:09:28.982Z,99353.37
2022-12-23T04:10:15.968Z,99358.16
2022-12-23T04:11:03.341Z,99360.50
2022-12-23T04:11:50.922Z,99363.41
2022-12-23T04:12:38.415Z,99360.81
2022-12-23T04:13:27.573Z,99366.88
2022-12-23T04:14:22.411Z,99374.88
2022-12-23T04:15:13.127Z,99364.25
2022-12-23T04:16:01.483Z,99367.44
2022-12-23T04:16:54.170Z,99367.91
2022-12-23T04:17:41.100Z,99378.81
2022-12-23T04:18:28.703Z,99373.94
2022-12-23T04:19:16.099Z,99381.81
2022-12-23T04:20:03.097Z,99371.28
2022-12-23T04:20:50.019Z,99365.16
2022-12-23T04:21:37.048Z,99376.06
2022-12-23T04:22:24.133Z,99366.44
2022-12-23T04:23:11.057Z,99354.69
2022-12-23T04:23:58.013Z,99368.75
2022-12-23T04:24:44.907Z,99356.06
2022-12-23T04:25:31.815Z,99355.84
2022-12-23T04:26:18.758Z,99363.78
2022-12-23T04:27:06.938Z,99354.34
2022-12-23T04:27:53.872Z,99360.44
2022-12-23T04:28:40.770Z,99360.06
2022-12-23T04:29:27.762Z,99356.72
2022-12-23T04:30:14.956Z,99362.06
2022-12-23T04:31:01.888Z,99362.06
2022-12-23T04:31:48.951Z,99356.47
2022-12-23T04:32:35.978Z,99360.47
2022-12-23T04:33:22.931Z,99359.78
2022-12-23T04:34:09.852Z,99362.44
2022-12-23T04:34:56.790Z,99341.69
2022-12-23T04:35:43.718Z,99354.38
2022-12-23T04:36:32.001Z,99343.38
2022-12-23T04:37:18.929Z,99338.72
2022-12-23T04:38:05.903Z,99333.75
2022-12-23T04:38:52.861Z,99332.91
2022-12-23T04:39:39.831Z,99327.47
2022-12-23T04:40:26.743Z,99316.66
2022-12-23T04:41:13.655Z,99318.28
2022-12-23T04:42:00.640Z,99304.31
2022-12-23T04:42:47.530Z,99311.78
2022-12-23T04:43:34.429Z,99315.75
2022-12-23T04:44:21.427Z,99310.88
2022-12-23T04:45:09.135Z,99307.75
2022-12-23T04:45:56.049Z,99309.19
2022-12-23T04:46:43.026Z,99315.22
2022-12-23T04:47:30.020Z,99312.78
2022-12-23T04:48:16.995Z,99310.25
2022-12-23T04:49:03.914Z,99302.56
2022-12-23T04:49:50.846Z,99295.16
2022-12-23T04:50:37.738Z,99296.31
2022-12-23T04:51:24.633Z,99292.28
2022-12-23T04:52:11.590Z,99296.09
2022-12-23T04:52:58.483Z,99288.53
2022-12-23T04:53:45.425Z,99286.31
2022-12-23T04:54:32.441Z,99275.63
2022-12-23T04:55:19.493Z,99275.13
2022-12-23T04:56:08.146Z,99272.13
2022-12-23T04:56:55.458Z,99269.09
2022-12-23T04:57:42.442Z,99265.75
2022-12-23T04:58:29.341Z,99265.75
2022-12-23T04:59:16.606Z,99258.88
2022-12-23T05:00:05.036Z,99264.38
2022-12-23T05:01:06.779Z,99260.53
2022-12-23T05:01:53.946Z,99261.94
2022-12-23T05:02:41.062Z,99252.50
2022-12-23T05:03:28.184Z,99250.03
2022-12-23T05:04:15.341Z,99255.38
2022-12-23T05:05:02.421Z,99260.41
2022-12-23T05:05:49.431Z,99259.94
2022-12-23T05:06:37.148Z,99266.41
2022-12-23T05:07:24.107Z,99272.44
2022-12-23T05:08:11.041Z,99275.13
2022-12-23T05:08:57.984Z,99279.63
2022-12-23T05:09:44.911Z,99276.63
2022-12-23T05:10:32.401Z,99281.00
2022-12-23T05:11:19.485Z,99286.09
2022-12-23T05:12:06.473Z,99293.34
2022-12-23T05:12:53.388Z,99288.50
2022-12-23T05:13:40.391Z,99283.19
2022-12-23T05:14:27.308Z,99293.03
2022-12-23T05:15:14.220Z,99284.19
2022-12-23T05:16:01.301Z,99284.87
2022-12-23T05:16:48.503Z,99293.94
2022-12-23T05:17:35.470Z,99294.69
2022-12-23T05:18:22.896Z,99294.63
2022-12-23T05:19:11.004Z,99302.38
2022-12-23T05:19:57.899Z,99314.97
2022-12-23T05:20:44.822Z,99359.91
2022-12-23T05:21:31.788Z,99369.28
2022-12-23T05:22:18.841Z,99370.94
2022-12-23T05:23:05.827Z,99348.31
2022-12-23T05:23:52.793Z,99344.56
2022-12-23T05:24:39.709Z,99365.41
2022-12-23T05:25:26.668Z,99371.56
2022-12-23T05:26:13.853Z,99365.09
2022-12-23T05:27:00.931Z,99356.06
2022-12-23T05:27:47.852Z,99359.53
2022-12-23T05:28:34.759Z,99370.75
2022-12-23T05:29:21.673Z,99360.37
2022-12-23T05:30:09.371Z,99355.66
2022-12-23T05:31:05.500Z,99334.75
2022-12-23T05:31:52.517Z,99348.88
2022-12-23T05:32:39.637Z,99372.00
2022-12-23T05:33:27.131Z,99364.28
2022-12-23T05:34:14.092Z,99362.78
2022-12-23T05:35:01.050Z,99359.69
2022-12-23T05:35:48.016Z,99365.84
2022-12-23T05:36:34.931Z,99374.69
2022-12-23T05:37:21.833Z,99365.09
2022-12-23T05:38:08.768Z,99369.22
2022-12-23T05:38:55.740Z,99381.28
2022-12-23T05:39:42.605Z,99370.91
2022-12-23T05:40:31.640Z,99371.41
2022-12-23T05:41:19.664Z,99360.66
2022-12-23T05:42:06.659Z,99370.81
2022-12-23T05:42:53.564Z,99360.22
2022-12-23T05:43:40.528Z,99358.25
2022-12-23T05:44:27.459Z,99351.53
2022-12-23T05:45:14.482Z,99359.53
2022-12-23T05:46:01.433Z,99341.06
2022-12-23T05:46:48.346Z,99341.88
2022-12-23T05:47:35.287Z,99344.28
2022-12-23T05:48:22.205Z,99347.63
2022-12-23T05:49:09.160Z,99345.66
2022-12-23T05:49:56.209Z,99337.22
2022-12-23T05:50:43.390Z,99339.22
2022-12-23T05:51:30.303Z,99338.53
2022-12-23T05:52:17.238Z,99351.88
2022-12-23T05:53:04.324Z,99330.00
2022-12-23T05:53:51.249Z,99316.66
2022-12-23T05:54:38.205Z,99318.41
2022-12-23T05:55:25.713Z,99311.88
2022-12-23T05:56:12.650Z,99320.84
2022-12-23T05:56:59.654Z,99314.91
2022-12-23T05:57:46.570Z,99317.41
2022-12-23T05:58:34.648Z,99325.44
2022-12-23T05:59:21.613Z,99322.91
2022-12-23T06:00:09.966Z,99325.56
2022-12-23T06:00:56.849Z,99325.44
2022-12-23T06:01:44.020Z,99330.22
2022-12-23T06:02:31.204Z,99325.59
2022-12-23T06:03:18.470Z,99327.44
2022-12-23T06:04:05.749Z,99332.31
2022-12-23T06:04:52.647Z,99325.66
2022-12-23T06:05:40.424Z,99333.75
2022-12-23T06:06:27.357Z,99334.12
2022-12-23T06:07:14.260Z,99331.75
2022-12-23T06:08:01.153Z,99330.34
2022-12-23T06:08:48.050Z,99332.56
2022-12-23T06:09:34.959Z,99334.75
2022-12-23T06:10:21.898Z,99324.59
2022-12-23T06:11:08.846Z,99330.37
2022-12-23T06:11:55.763Z,99326.03
2022-12-23T06:12:42.669Z,99322.75
2022-12-23T06:13:29.567Z,99322.25
2022-12-23T06:14:16.459Z,99327.75
2022-12-23T06:15:03.667Z,99324.59
2022-12-23T06:15:50.695Z,99327.16
2022-12-23T06:16:37.700Z,99328.38
2022-12-23T06:17:24.688Z,99342.25
2022-12-23T06:18:11.582Z,99333.97
2022-12-23T06:18:58.500Z,99323.75
2022-12-23T06:19:45.468Z,99314.19
2022-12-23T06:20:32.418Z,99318.75
2022-12-23T06:21:19.380Z,99313.22
2022-12-23T06:22:06.298Z,99321.94
2022-12-23T06:22:53.279Z,99327.28
2022-12-23T06:23:40.203Z,99329.97
2022-12-23T06:24:27.101Z,99333.66
2022-12-23T06:25:14.093Z,99322.47
2022-12-23T06:26:02.099Z,99317.63
2022-12-23T06:26:54.901Z,99314.63
2022-12-23T06:27:43.901Z,99328.84
2022-12-23T06:28:30.845Z,99324.16
2022-12-23T06:29:17.722Z,99327.50
2022-12-23T06:30:04.951Z,99329.38
2022-12-23T06:30:55.929Z,99330.25
2022-12-23T06:31:42.980Z,99318.53
2022-12-23T06:32:34.518Z,99322.75
2022-12-23T06:33:25.507Z,99308.34
2022-12-23T06:34:12.470Z,99308.19
2022-12-23T06:34:59.340Z,99303.97
2022-12-23T06:35:46.235Z,99301.81
2022-12-23T06:36:33.129Z,99300.31
2022-12-23T06:37:21.367Z,99296.66
2022-12-23T06:38:11.992Z,99292.13
2022-12-23T06:38:59.374Z,99296.12
2022-12-23T06:39:46.318Z,99292.78
2022-12-23T06:40:33.238Z,99284.41
2022-12-23T06:41:20.119Z,99286.09
2022-12-23T06:42:07.012Z,99291.97
2022-12-23T06:42:53.951Z,99282.09
2022-12-23T06:43:40.874Z,99280.38
2022-12-23T06:44:27.817Z,99285.06
2022-12-23T06:45:14.796Z,99282.06
2022-12-23T06:46:01.828Z,99290.09
2022-12-23T06:46:48.858Z,99348.34
2022-12-23T06:47:35.820Z,99381.84
2022-12-23T06:48:23.244Z,99368.47
2022-12-23T06:49:13.495Z,99343.69
2022-12-23T06:50:00.751Z,99335.47
2022-12-23T06:50:47.802Z,99355.91
2022-12-23T06:51:34.768Z,99361.25
2022-12-23T06:52:23.281Z,99340.34
2022-12-23T06:53:10.186Z,99323.59
2022-12-23T06:53:59.470Z,99363.28
2022-12-23T06:54:46.433Z,99377.53
2022-12-23T06:55:33.437Z,99347.41
2022-12-23T06:56:20.564Z,99305.88
2022-12-23T06:57:07.530Z,99344.87
2022-12-23T06:57:54.457Z,99383.75
2022-12-23T06:58:41.365Z,99375.00
2022-12-23T06:59:29.251Z,99304.34
2022-12-23T07:00:16.799Z,99300.50
2022-12-23T07:01:03.840Z,99364.28
2022-12-23T07:01:50.961Z,99384.37
2022-12-23T07:02:38.160Z,99331.13
2022-12-23T07:03:25.194Z,99304.19
2022-12-23T07:04:12.157Z,99338.84
2022-12-23T07:04:59.194Z,99359.44
2022-12-23T07:05:52.438Z,99328.97
2022-12-23T07:06:40.014Z,99302.69
2022-12-23T07:07:26.888Z,99328.13
2022-12-23T07:08:13.773Z,99348.72
2022-12-23T07:09:01.319Z,99326.28
2022-12-23T07:09:48.297Z,99300.50
2022-12-23T07:10:35.311Z,99304.19
2022-12-23T07:11:22.226Z,99333.66
2022-12-23T07:12:09.479Z,99349.41
2022-12-23T07:12:56.398Z,99313.56
2022-12-23T07:13:43.337Z,99311.22
2022-12-23T07:14:30.268Z,99329.28
2022-12-23T07:15:17.220Z,99325.78
2022-12-23T07:16:09.039Z,99321.59
2022-12-23T07:16:56.058Z,99334.34
2022-12-23T07:17:43.049Z,99331.47
2022-12-23T07:18:29.938Z,99320.41
2022-12-23T07:19:16.817Z,99317.72
2022-12-23T07:20:04.090Z,99312.03
2022-12-23T07:20:51.695Z,99308.53
2022-12-23T07:21:39.029Z,99310.19
2022-12-23T07:22:25.947Z,99290.63
2022-12-23T07:23:12.831Z,99291.41
2022-12-23T07:23:59.779Z,99288.06
2022-12-23T07:24:46.676Z,99289.75
2022-12-23T07:25:33.668Z,99292.09
2022-12-23T07:26:20.639Z,99298.09
2022-12-23T07:27:07.599Z,99304.28
2022-12-23T07:27:55.515Z,99299.81
2022-12-23T07:28:48.037Z,99303.16
2022-12-23T07:29:34.919Z,99299.13
2022-12-23T07:30:22.887Z,99292.13
2022-12-23T07:31:09.895Z,99293.13
2022-12-23T07:31:56.868Z,99283.22
2022-12-23T07:32:43.842Z,99287.94
2022-12-23T07:33:30.777Z,99287.75
2022-12-23T07:34:17.707Z,99299.63
2022-12-23T07:35:04.990Z,99293.28
2022-12-23T07:35:51.905Z,99291.13
2022-12-23T07:36:38.874Z,99296.81
2022-12-23T07:37:25.799Z,99290.59
2022-12-23T07:38:12.872Z,99291.63
2022-12-23T07:38:59.810Z,99301.66
2022-12-23T07:39:46.723Z,99296.47
2022-12-23T07:40:33.681Z,99297.13
2022-12-23T07:41:20.700Z,99303.34
2022-12-23T07:43:14.613Z,99319.09
2022-12-23T07:44:01.575Z,99315.91
2022-12-23T07:44:48.519Z,99315.06
2022-12-23T07:45:35.433Z,99323.44
2022-12-23T07:46:22.506Z,99323.59
2022-12-23T07:47:09.596Z,99318.25
2022-12-23T07:47:58.245Z,99307.69
2022-12-23T07:48:45.172Z,99321.44
2022-12-23T07:49:32.058Z,99320.75
2022-12-23T07:50:18.998Z,99320.22
2022-12-23T07:51:06.060Z,99318.06
2022-12-23T07:51:53.071Z,99327.12
2022-12-23T07:52:40.258Z,99332.47
2022-12-23T07:53:27.162Z,99330.63
2022-12-23T07:54:14.409Z,99329.75
2022-12-23T07:55:01.322Z,99330.91
2022-12-23T07:55:54.578Z,99344.63
2022-12-23T07:56:43.468Z,99338.59
2022-12-23T07:57:30.472Z,99327.84
2022-12-23T07:58:17.478Z,99320.47
2022-12-23T07:59:04.374Z,99319.44
2022-12-23T07:59:51.408Z,99319.94
2022-12-23T08:00:38.320Z,99322.28
2022-12-23T08:01:25.337Z,99313.50
2022-12-23T08:02:12.450Z,99306.81
2022-12-23T08:02:59.600Z,99307.56
2022-12-23T08:03:47.237Z,99301.88
2022-12-23T08:04:34.323Z,99305.41
2022-12-23T08:05:21.421Z,99308.53
2022-12-23T08:06:12.863Z,99314.69
2022-12-23T08:06:59.801Z,99316.00
2022-12-23T08:07:46.817Z,99304.97
2022-12-23T08:08:34.197Z,99311.09
2022-12-23T08:09:21.110Z,99310.22
2022-12-23T08:10:08.664Z,99309.91
2022-12-23T08:11:04.525Z,99305.53
2022-12-23T08:11:51.545Z,99307.37
2022-12-23T08:12:38.511Z,99306.97
2022-12-23T08:13:25.544Z,99308.47
2022-12-23T08:14:12.535Z,99304.00
2022-12-23T08:14:59.660Z,99297.25
2022-12-23T08:15:46.566Z,99296.09
2022-12-23T08:16:39.573Z,99285.28
2022-12-23T08:17:30.856Z,99290.69
2022-12-23T08:18:17.825Z,99285.09
2022-12-23T08:19:04.728Z,99280.06
2022-12-23T08:19:51.636Z,99283.09
2022-12-23T08:20:38.557Z,99297.63
2022-12-23T08:21:25.529Z,99295.59
2022-12-23T08:22:12.488Z,99297.44
2022-12-23T08:22:59.393Z,99301.09
2022-12-23T08:23:47.664Z,99296.50
2022-12-23T08:24:34.566Z,99291.66
2022-12-23T08:25:21.467Z,99295.16
2022-12-23T08:26:13.288Z,99294.16
2022-12-23T08:27:00.165Z,99295.16
2022-12-23T08:27:47.167Z,99295.16
2022-12-23T08:28:35.615Z,99291.56
2022-12-23T08:29:23.457Z,99290.66
2022-12-23T08:30:11.032Z,99295.81
2022-12-23T08:31:18.123Z,99294.44
2022-12-23T08:33:13.259Z,99305.22
2022-12-23T08:34:00.974Z,99303.62
2022-12-23T08:34:47.947Z,99314.37
2022-12-23T08:35:34.875Z,99314.78
2022-12-23T08:36:27.618Z,99313.75
2022-12-23T08:37:14.847Z,99312.09
2022-12-23T08:38:01.736Z,99315.94
2022-12-23T08:38:48.704Z,99312.50
2022-12-23T08:39:35.784Z,99311.28
2022-12-23T08:40:22.723Z,99308.25
2022-12-23T08:41:18.902Z,99304.53
2022-12-23T08:42:05.867Z,99300.16
2022-12-23T08:42:52.729Z,99307.94
2022-12-23T08:43:39.757Z,99304.44
2022-12-23T08:44:30.088Z,99312.12
2022-12-23T08:45:16.997Z,99317.16
2022-12-23T08:46:04.438Z,99313.44
2022-12-23T08:46:51.342Z,99310.69
2022-12-23T08:47:38.299Z,99313.38
2022-12-23T08:48:25.233Z,99311.94
2022-12-23T08:49:12.189Z,99310.28
2022-12-23T08:49:59.104Z,99314.19
2022-12-23T08:50:46.985Z,99317.75
2022-12-23T08:51:34.536Z,99303.22
2022-12-23T08:52:21.464Z,99309.31
2022-12-23T08:53:08.613Z,99311.12
2022-12-23T08:54:00.597Z,99317.50
2022-12-23T08:54:48.121Z,99324.66
2022-12-23T08:55:39.389Z,99323.47
2022-12-23T08:56:29.281Z,99322.16
2022-12-23T08:57:16.217Z,99328.59
2022-12-23T08:58:03.198Z,99326.62
2022-12-23T08:58:52.877Z,99319.59
2022-12-23T08:59:39.761Z,99328.44
2022-12-23T09:00:26.752Z,99328.81
2022-12-23T09:01:15.732Z,99322.28
2022-12-23T09:02:03.765Z,99321.63
2022-12-23T09:02:50.947Z,99327.91
2022-12-23T09:03:38.574Z,99332.09
2022-12-23T09:04:25.642Z,99338.28
2022-12-23T09:05:12.499Z,99336.31
2022-12-23T09:05:59.399Z,99345.16
2022-12-23T09:06:46.416Z,99349.31
2022-12-23T09:07:33.458Z,99351.78
2022-12-23T09:08:20.339Z,99352.91
2022-12-23T09:09:08.169Z,99362.28
2022-12-23T09:09:55.187Z,99356.59
2022-12-23T09:10:43.654Z,99356.91
2022-12-23T09:11:30.607Z,99346.22
2022-12-23T09:12:17.535Z,99347.28
2022-12-23T09:13:04.440Z,99348.78
2022-12-23T09:13:51.373Z,99341.62
2022-12-23T09:14:38.276Z,99329.81
2022-12-23T09:15:25.163Z,99345.28
2022-12-23T09:16:12.391Z,99338.09
2022-12-23T09:16:59.318Z,99331.78
2022-12-23T09:17:46.284Z,99328.97
2022-12-23T09:18:33.549Z,99330.63
2022-12-23T09:19:20.680Z,99334.84
2022-12-23T09:20:08.284Z,99335.47
2022-12-23T09:21:00.631Z,99332.91
2022-12-23T09:21:48.155Z,99330.03
2022-12-23T09:22:35.288Z,99329.56
2022-12-23T09:23:22.545Z,99329.87
2022-12-23T09:24:21.777Z,99335.19
2022-12-23T09:25:09.750Z,99329.56
2022-12-23T09:25:59.858Z,99327.63
2022-12-23T09:26:57.843Z,99325.34
2022-12-23T09:27:44.717Z,99329.56
2022-12-23T09:28:31.778Z,99333.75
2022-12-23T09:29:24.184Z,99327.66
2022-12-23T09:30:14.340Z,99329.63
2022-12-23T09:31:09.095Z,99336.19
2022-12-23T09:31:56.183Z,99334.47
2022-12-23T09:32:46.356Z,99333.62
2022-12-23T09:33:33.373Z,99337.44
2022-12-23T09:34:20.277Z,99335.19
2022-12-23T09:35:07.568Z,99330.53
2022-12-23T09:36:00.175Z,99328.91
2022-12-23T09:36:51.847Z,99324.44
2022-12-23T09:37:41.856Z,99316.38
2022-12-23T09:38:28.793Z,99307.56
2022-12-23T09:39:15.780Z,99303.12
2022-12-23T09:40:03.454Z,99301.25
2022-12-23T09:40:52.361Z,99305.53
2022-12-23T09:42:01.914Z,99303.44
2022-12-23T09:42:57.730Z,99304.47
2022-12-23T09:44:14.093Z,99294.16
2022-12-23T09:45:20.493Z,99285.97
2022-12-23T09:46:21.643Z,99293.38
2022-12-23T09:47:13.115Z,99291.72
2022-12-23T09:48:00.122Z,99293.97
2022-12-23T09:49:05.654Z,99285.94
2022-12-23T09:50:00.300Z,99292.75
2022-12-23T09:50:47.279Z,99290.88
2022-12-23T09:51:34.830Z,99295.94
2022-12-23T09:52:35.380Z,99292.87
2022-12-23T09:53:26.019Z,99286.94
2022-12-23T09:54:25.496Z,99284.25
2022-12-23T09:55:12.685Z,99285.37
2022-12-23T09:56:15.357Z,99282.88
2022-12-23T09:57:23.357Z,99282.53